sensor_id;sensor_type;location;lat;lon;timestamp;P1;durP1;ratioP1;P2;durP2;ratioP2
16870;SDS011;8552;48.120;-1.456;2023-04-24T00:00:07;6.97;;;2.92;;
16870;SDS011;8552;48.120;-1.456;2023-04-24T00:02:40;4.20;;;2.50;;
16870;SDS011;8552;48.120;-1.456;2023-04-24T00:05:15;3.45;;;2.30;;
16870;SDS011;8552;48.120;-1.456;2023-04-24T00:07:42;5.03;;;2.95;;
16870;SDS011;8552;48.120;-1.456;2023-04-24T00:10:10;4.90;;;2.28;;
16870;SDS011;8552;48.120;-1.456;2023-04-24T00:12:36;4.10;;;2.30;;
16870;SDS011;8552;48.120;-1.456;2023-04-24T00:15:03;5.35;;;2.40;;
16870;SDS011;8552;48.120;-1.456;2023-04-24T00:17:29;5.80;;;2.13;;
16870;SDS011;8552;48.120;-1.456;2023-04-24T00:19:55;5.78;;;2.80;;
16870;SDS011;8552;48.120;-1.456;2023-04-24T00:22:27;4.28;;;2.70;;
16870;SDS011;8552;48.120;-1.456;2023-04-24T00:24:53;2.80;;;2.35;;
16870;SDS011;8552;48.120;-1.456;2023-04-24T00:27:19;3.20;;;2.42;;
16870;SDS011;8552;48.120;-1.456;2023-04-24T00:29:45;7.43;;;2.80;;
16870;SDS011;8552;48.120;-1.456;2023-04-24T00:32:11;6.05;;;3.25;;
16870;SDS011;8552;48.120;-1.456;2023-04-24T00:34:37;3.38;;;2.50;;
16870;SDS011;8552;48.120;-1.456;2023-04-24T00:37:03;4.65;;;2.53;;
16870;SDS011;8552;48.120;-1.456;2023-04-24T00:39:29;4.78;;;2.97;;
16870;SDS011;8552;48.120;-1.456;2023-04-24T00:41:54;5.57;;;2.25;;
16870;SDS011;8552;48.120;-1.456;2023-04-24T00:44:21;4.93;;;2.88;;
16870;SDS011;8552;48.120;-1.456;2023-04-24T00:46:48;7.00;;;3.40;;
16870;SDS011;8552;48.120;-1.456;2023-04-24T00:49:18;6.13;;;2.70;;
16870;SDS011;8552;48.120;-1.456;2023-04-24T00:51:44;6.22;;;3.22;;
16870;SDS011;8552;48.120;-1.456;2023-04-24T00:54:10;5.47;;;2.70;;
16870;SDS011;8552;48.120;-1.456;2023-04-24T00:56:37;4.32;;;3.10;;
16870;SDS011;8552;48.120;-1.456;2023-04-24T00:59:03;6.18;;;3.03;;
16870;SDS011;8552;48.120;-1.456;2023-04-24T01:01:30;7.25;;;2.78;;
16870;SDS011;8552;48.120;-1.456;2023-04-24T01:03:55;5.03;;;3.03;;
16870;SDS011;8552;48.120;-1.456;2023-04-24T01:06:22;4.10;;;3.22;;
16870;SDS011;8552;48.120;-1.456;2023-04-24T01:08:52;7.22;;;3.38;;
16870;SDS011;8552;48.120;-1.456;2023-04-24T01:11:19;5.82;;;3.45;;
16870;SDS011;8552;48.120;-1.456;2023-04-24T01:13:45;7.80;;;3.88;;
16870;SDS011;8552;48.120;-1.456;2023-04-24T01:16:12;5.47;;;3.00;;
16870;SDS011;8552;48.120;-1.456;2023-04-24T01:18:38;5.85;;;3.40;;
16870;SDS011;8552;48.120;-1.456;2023-04-24T01:21:04;6.68;;;3.17;;
16870;SDS011;8552;48.120;-1.456;2023-04-24T01:23:33;5.75;;;3.00;;
16870;SDS011;8552;48.120;-1.456;2023-04-24T01:25:59;5.13;;;3.38;;
16870;SDS011;8552;48.120;-1.456;2023-04-24T01:28:25;4.80;;;2.70;;
16870;SDS011;8552;48.120;-1.456;2023-04-24T01:30:51;8.38;;;3.25;;
16870;SDS011;8552;48.120;-1.456;2023-04-24T01:33:18;6.93;;;3.05;;
16870;SDS011;8552;48.120;-1.456;2023-04-24T01:35:46;6.25;;;3.15;;
16870;SDS011;8552;48.120;-1.456;2023-04-24T01:38:13;9.07;;;3.75;;
16870;SDS011;8552;48.120;-1.456;2023-04-24T01:40:39;5.43;;;3.30;;
16870;SDS011;8552;48.120;-1.456;2023-04-24T01:43:05;6.68;;;3.50;;
16870;SDS011;8552;48.120;-1.456;2023-04-24T01:45:31;6.50;;;3.30;;
16870;SDS011;8552;48.120;-1.456;2023-04-24T01:47:57;6.60;;;3.65;;
16870;SDS011;8552;48.120;-1.456;2023-04-24T01:50:22;6.40;;;3.42;;
16870;SDS011;8552;48.120;-1.456;2023-04-24T01:52:48;5.82;;;3.78;;
16870;SDS011;8552;48.120;-1.456;2023-04-24T01:55:14;7.15;;;3.83;;
16870;SDS011;8552;48.120;-1.456;2023-04-24T01:57:40;7.22;;;3.47;;
16870;SDS011;8552;48.120;-1.456;2023-04-24T02:00:05;8.40;;;4.40;;
16870;SDS011;8552;48.120;-1.456;2023-04-24T02:02:32;8.40;;;3.97;;
16870;SDS011;8552;48.120;-1.456;2023-04-24T02:04:58;5.75;;;4.20;;
16870;SDS011;8552;48.120;-1.456;2023-04-24T02:07:24;6.88;;;4.18;;
16870;SDS011;8552;48.120;-1.456;2023-04-24T02:09:50;8.32;;;4.13;;
16870;SDS011;8552;48.120;-1.456;2023-04-24T02:12:16;6.53;;;3.80;;
16870;SDS011;8552;48.120;-1.456;2023-04-24T02:14:42;5.90;;;3.83;;
16870;SDS011;8552;48.120;-1.456;2023-04-24T02:17:08;7.78;;;3.70;;
16870;SDS011;8552;48.120;-1.456;2023-04-24T02:19:34;6.18;;;4.03;;
16870;SDS011;8552;48.120;-1.456;2023-04-24T02:22:00;7.05;;;3.85;;
16870;SDS011;8552;48.120;-1.456;2023-04-24T02:24:26;7.57;;;3.92;;
16870;SDS011;8552;48.120;-1.456;2023-04-24T02:26:52;10.25;;;4.05;;
16870;SDS011;8552;48.120;-1.456;2023-04-24T02:29:17;6.85;;;4.32;;
16870;SDS011;8552;48.120;-1.456;2023-04-24T02:31:43;8.10;;;3.90;;
16870;SDS011;8552;48.120;-1.456;2023-04-24T02:34:09;3.78;;;3.42;;
16870;SDS011;8552;48.120;-1.456;2023-04-24T02:36:35;4.93;;;3.35;;
16870;SDS011;8552;48.120;-1.456;2023-04-24T02:39:01;6.68;;;3.72;;
16870;SDS011;8552;48.120;-1.456;2023-04-24T02:41:26;7.95;;;3.92;;
16870;SDS011;8552;48.120;-1.456;2023-04-24T02:43:56;7.22;;;4.00;;
16870;SDS011;8552;48.120;-1.456;2023-04-24T02:46:23;7.93;;;3.80;;
16870;SDS011;8552;48.120;-1.456;2023-04-24T02:48:48;11.43;;;4.13;;
16870;SDS011;8552;48.120;-1.456;2023-04-24T02:51:14;5.10;;;3.67;;
16870;SDS011;8552;48.120;-1.456;2023-04-24T02:53:40;5.00;;;3.85;;
16870;SDS011;8552;48.120;-1.456;2023-04-24T02:56:06;5.90;;;3.80;;
16870;SDS011;8552;48.120;-1.456;2023-04-24T02:58:31;10.55;;;3.35;;
16870;SDS011;8552;48.120;-1.456;2023-04-24T03:00:57;4.55;;;3.08;;
16870;SDS011;8552;48.120;-1.456;2023-04-24T03:03:23;7.32;;;3.67;;
16870;SDS011;8552;48.120;-1.456;2023-04-24T03:05:50;6.13;;;3.28;;
16870;SDS011;8552;48.120;-1.456;2023-04-24T03:08:15;12.52;;;4.05;;
16870;SDS011;8552;48.120;-1.456;2023-04-24T03:10:41;5.43;;;3.30;;
16870;SDS011;8552;48.120;-1.456;2023-04-24T03:13:07;7.22;;;3.65;;
16870;SDS011;8552;48.120;-1.456;2023-04-24T03:15:32;6.38;;;3.67;;
16870;SDS011;8552;48.120;-1.456;2023-04-24T03:17:58;3.80;;;3.10;;
16870;SDS011;8552;48.120;-1.456;2023-04-24T03:20:25;5.15;;;3.63;;
16870;SDS011;8552;48.120;-1.456;2023-04-24T03:22:51;12.32;;;3.83;;
16870;SDS011;8552;48.120;-1.456;2023-04-24T03:25:17;5.97;;;3.28;;
16870;SDS011;8552;48.120;-1.456;2023-04-24T03:27:42;5.85;;;3.28;;
16870;SDS011;8552;48.120;-1.456;2023-04-24T03:30:08;6.40;;;3.38;;
16870;SDS011;8552;48.120;-1.456;2023-04-24T03:32:35;7.43;;;3.00;;
16870;SDS011;8552;48.120;-1.456;2023-04-24T03:35:01;5.28;;;3.30;;
16870;SDS011;8552;48.120;-1.456;2023-04-24T03:37:26;4.65;;;3.03;;
16870;SDS011;8552;48.120;-1.456;2023-04-24T03:39:52;8.75;;;3.50;;
16870;SDS011;8552;48.120;-1.456;2023-04-24T03:42:18;8.90;;;3.88;;
16870;SDS011;8552;48.120;-1.456;2023-04-24T03:44:44;9.40;;;3.47;;
16870;SDS011;8552;48.120;-1.456;2023-04-24T03:47:09;8.20;;;3.75;;
16870;SDS011;8552;48.120;-1.456;2023-04-24T03:49:35;9.23;;;4.22;;
16870;SDS011;8552;48.120;-1.456;2023-04-24T03:52:00;6.35;;;3.85;;
16870;SDS011;8552;48.120;-1.456;2023-04-24T03:54:26;7.10;;;2.92;;
16870;SDS011;8552;48.120;-1.456;2023-04-24T03:56:52;9.77;;;3.33;;
16870;SDS011;8552;48.120;-1.456;2023-04-24T03:59:18;12.18;;;3.83;;
16870;SDS011;8552;48.120;-1.456;2023-04-24T04:01:43;6.00;;;3.75;;
16870;SDS011;8552;48.120;-1.456;2023-04-24T04:04:10;5.53;;;3.45;;
16870;SDS011;8552;48.120;-1.456;2023-04-24T04:06:36;7.38;;;3.47;;
16870;SDS011;8552;48.120;-1.456;2023-04-24T04:09:02;7.03;;;2.88;;
16870;SDS011;8552;48.120;-1.456;2023-04-24T04:11:28;5.07;;;3.15;;
16870;SDS011;8552;48.120;-1.456;2023-04-24T04:13:54;6.97;;;2.83;;
16870;SDS011;8552;48.120;-1.456;2023-04-24T04:16:19;5.82;;;3.47;;
16870;SDS011;8552;48.120;-1.456;2023-04-24T04:18:45;6.88;;;3.15;;
16870;SDS011;8552;48.120;-1.456;2023-04-24T04:21:11;7.88;;;4.25;;
16870;SDS011;8552;48.120;-1.456;2023-04-24T04:23:37;9.95;;;3.25;;
16870;SDS011;8552;48.120;-1.456;2023-04-24T04:26:03;6.70;;;3.40;;
16870;SDS011;8552;48.120;-1.456;2023-04-24T04:28:29;6.53;;;2.95;;
16870;SDS011;8552;48.120;-1.456;2023-04-24T04:30:58;7.22;;;3.15;;
16870;SDS011;8552;48.120;-1.456;2023-04-24T04:33:24;7.22;;;3.92;;
16870;SDS011;8552;48.120;-1.456;2023-04-24T04:35:50;8.07;;;3.22;;
16870;SDS011;8552;48.120;-1.456;2023-04-24T04:38:21;9.07;;;3.63;;
16870;SDS011;8552;48.120;-1.456;2023-04-24T04:40:47;5.72;;;3.05;;
16870;SDS011;8552;48.120;-1.456;2023-04-24T04:43:13;6.63;;;2.97;;
16870;SDS011;8552;48.120;-1.456;2023-04-24T04:45:39;8.48;;;3.38;;
16870;SDS011;8552;48.120;-1.456;2023-04-24T04:48:06;7.03;;;3.30;;
16870;SDS011;8552;48.120;-1.456;2023-04-24T04:50:37;4.07;;;2.80;;
16870;SDS011;8552;48.120;-1.456;2023-04-24T04:53:03;8.00;;;3.35;;
16870;SDS011;8552;48.120;-1.456;2023-04-24T04:55:30;6.13;;;3.38;;
16870;SDS011;8552;48.120;-1.456;2023-04-24T04:57:56;6.50;;;2.80;;
16870;SDS011;8552;48.120;-1.456;2023-04-24T05:00:22;10.35;;;3.30;;
16870;SDS011;8552;48.120;-1.456;2023-04-24T05:02:50;4.63;;;2.75;;
16870;SDS011;8552;48.120;-1.456;2023-04-24T05:05:16;6.35;;;3.22;;
16870;SDS011;8552;48.120;-1.456;2023-04-24T05:07:42;7.03;;;3.38;;
16870;SDS011;8552;48.120;-1.456;2023-04-24T05:10:09;4.05;;;2.85;;
16870;SDS011;8552;48.120;-1.456;2023-04-24T05:12:35;5.90;;;3.33;;
16870;SDS011;8552;48.120;-1.456;2023-04-24T05:15:01;7.13;;;3.80;;
16870;SDS011;8552;48.120;-1.456;2023-04-24T05:17:27;8.75;;;3.75;;
16870;SDS011;8552;48.120;-1.456;2023-04-24T05:19:53;4.45;;;2.85;;
16870;SDS011;8552;48.120;-1.456;2023-04-24T05:22:19;11.90;;;3.40;;
16870;SDS011;8552;48.120;-1.456;2023-04-24T05:24:46;4.82;;;3.30;;
16870;SDS011;8552;48.120;-1.456;2023-04-24T05:27:12;5.68;;;2.70;;
16870;SDS011;8552;48.120;-1.456;2023-04-24T05:29:38;4.88;;;3.00;;
16870;SDS011;8552;48.120;-1.456;2023-04-24T05:32:05;8.35;;;4.10;;
16870;SDS011;8552;48.120;-1.456;2023-04-24T05:34:31;5.55;;;2.95;;
16870;SDS011;8552;48.120;-1.456;2023-04-24T05:36:57;6.10;;;3.30;;
16870;SDS011;8552;48.120;-1.456;2023-04-24T05:39:23;6.43;;;3.08;;
16870;SDS011;8552;48.120;-1.456;2023-04-24T05:41:50;5.22;;;2.92;;
16870;SDS011;8552;48.120;-1.456;2023-04-24T05:44:16;5.63;;;3.13;;
16870;SDS011;8552;48.120;-1.456;2023-04-24T05:46:41;18.27;;;4.13;;
16870;SDS011;8552;48.120;-1.456;2023-04-24T05:49:07;5.57;;;3.25;;
16870;SDS011;8552;48.120;-1.456;2023-04-24T05:51:33;9.38;;;3.22;;
16870;SDS011;8552;48.120;-1.456;2023-04-24T05:53:58;8.82;;;3.85;;
16870;SDS011;8552;48.120;-1.456;2023-04-24T05:56:24;7.50;;;3.88;;
16870;SDS011;8552;48.120;-1.456;2023-04-24T05:58:50;13.88;;;6.25;;
16870;SDS011;8552;48.120;-1.456;2023-04-24T06:01:16;11.82;;;5.47;;
16870;SDS011;8552;48.120;-1.456;2023-04-24T06:03:42;12.32;;;6.13;;
16870;SDS011;8552;48.120;-1.456;2023-04-24T06:06:08;14.32;;;6.30;;
16870;SDS011;8552;48.120;-1.456;2023-04-24T06:08:34;7.55;;;4.80;;
16870;SDS011;8552;48.120;-1.456;2023-04-24T06:11:00;9.55;;;4.85;;
16870;SDS011;8552;48.120;-1.456;2023-04-24T06:13:26;7.38;;;4.35;;
16870;SDS011;8552;48.120;-1.456;2023-04-24T06:15:52;8.63;;;3.95;;
16870;SDS011;8552;48.120;-1.456;2023-04-24T06:18:18;6.00;;;3.10;;
16870;SDS011;8552;48.120;-1.456;2023-04-24T06:20:44;7.75;;;3.53;;
16870;SDS011;8552;48.120;-1.456;2023-04-24T06:23:12;10.13;;;4.13;;
16870;SDS011;8552;48.120;-1.456;2023-04-24T06:25:44;7.63;;;3.30;;
16870;SDS011;8552;48.120;-1.456;2023-04-24T06:28:16;7.07;;;3.45;;
16870;SDS011;8552;48.120;-1.456;2023-04-24T06:30:48;10.05;;;3.05;;
16870;SDS011;8552;48.120;-1.456;2023-04-24T06:33:15;7.63;;;3.40;;
16870;SDS011;8552;48.120;-1.456;2023-04-24T06:35:41;10.10;;;4.03;;
16870;SDS011;8552;48.120;-1.456;2023-04-24T06:38:07;6.28;;;3.35;;
16870;SDS011;8552;48.120;-1.456;2023-04-24T06:40:33;5.25;;;3.40;;
16870;SDS011;8552;48.120;-1.456;2023-04-24T06:42:59;5.18;;;3.75;;
16870;SDS011;8552;48.120;-1.456;2023-04-24T06:45:27;7.72;;;3.38;;
16870;SDS011;8552;48.120;-1.456;2023-04-24T06:47:54;7.88;;;2.92;;
16870;SDS011;8552;48.120;-1.456;2023-04-24T06:50:19;7.75;;;3.50;;
16870;SDS011;8552;48.120;-1.456;2023-04-24T06:52:45;7.43;;;4.10;;
16870;SDS011;8552;48.120;-1.456;2023-04-24T06:55:11;7.40;;;3.58;;
16870;SDS011;8552;48.120;-1.456;2023-04-24T06:57:37;5.35;;;3.30;;
16870;SDS011;8552;48.120;-1.456;2023-04-24T07:00:03;8.25;;;4.20;;
16870;SDS011;8552;48.120;-1.456;2023-04-24T07:02:31;7.53;;;3.58;;
16870;SDS011;8552;48.120;-1.456;2023-04-24T07:04:57;5.68;;;3.22;;
16870;SDS011;8552;48.120;-1.456;2023-04-24T07:07:23;5.45;;;3.40;;
16870;SDS011;8552;48.120;-1.456;2023-04-24T07:09:48;10.02;;;3.90;;
16870;SDS011;8552;48.120;-1.456;2023-04-24T07:12:15;6.47;;;3.58;;
16870;SDS011;8552;48.120;-1.456;2023-04-24T07:14:42;4.97;;;3.35;;
16870;SDS011;8552;48.120;-1.456;2023-04-24T07:17:07;7.80;;;3.33;;
16870;SDS011;8552;48.120;-1.456;2023-04-24T07:19:34;7.38;;;4.22;;
16870;SDS011;8552;48.120;-1.456;2023-04-24T07:22:02;5.03;;;3.13;;
16870;SDS011;8552;48.120;-1.456;2023-04-24T07:24:28;4.70;;;3.00;;
16870;SDS011;8552;48.120;-1.456;2023-04-24T07:26:54;6.00;;;3.45;;
16870;SDS011;8552;48.120;-1.456;2023-04-24T07:29:20;6.65;;;3.50;;
16870;SDS011;8552;48.120;-1.456;2023-04-24T07:31:46;4.35;;;3.72;;
16870;SDS011;8552;48.120;-1.456;2023-04-24T07:34:12;5.30;;;3.15;;
16870;SDS011;8552;48.120;-1.456;2023-04-24T07:36:38;8.10;;;3.58;;
16870;SDS011;8552;48.120;-1.456;2023-04-24T07:39:04;6.57;;;3.83;;
16870;SDS011;8552;48.120;-1.456;2023-04-24T07:41:30;5.05;;;2.40;;
16870;SDS011;8552;48.120;-1.456;2023-04-24T07:43:56;4.13;;;2.78;;
16870;SDS011;8552;48.120;-1.456;2023-04-24T07:46:23;4.63;;;2.50;;
16870;SDS011;8552;48.120;-1.456;2023-04-24T07:48:49;5.53;;;2.78;;
16870;SDS011;8552;48.120;-1.456;2023-04-24T07:51:15;5.15;;;2.65;;
16870;SDS011;8552;48.120;-1.456;2023-04-24T07:53:41;4.18;;;2.47;;
16870;SDS011;8552;48.120;-1.456;2023-04-24T07:56:07;8.20;;;3.00;;
16870;SDS011;8552;48.120;-1.456;2023-04-24T07:58:33;2.33;;;1.98;;
16870;SDS011;8552;48.120;-1.456;2023-04-24T08:00:59;4.15;;;2.20;;
16870;SDS011;8552;48.120;-1.456;2023-04-24T08:03:25;4.70;;;2.20;;
16870;SDS011;8552;48.120;-1.456;2023-04-24T08:05:51;9.57;;;3.30;;
16870;SDS011;8552;48.120;-1.456;2023-04-24T08:08:21;4.55;;;2.55;;
16870;SDS011;8552;48.120;-1.456;2023-04-24T08:10:47;7.75;;;2.78;;
16870;SDS011;8552;48.120;-1.456;2023-04-24T08:13:13;4.88;;;2.75;;
16870;SDS011;8552;48.120;-1.456;2023-04-24T08:15:39;6.57;;;3.20;;
16870;SDS011;8552;48.120;-1.456;2023-04-24T08:18:05;5.30;;;2.78;;
16870;SDS011;8552;48.120;-1.456;2023-04-24T08:20:31;3.10;;;2.33;;
16870;SDS011;8552;48.120;-1.456;2023-04-24T08:22:57;2.42;;;2.10;;
16870;SDS011;8552;48.120;-1.456;2023-04-24T08:25:22;4.32;;;2.40;;
16870;SDS011;8552;48.120;-1.456;2023-04-24T08:27:50;3.28;;;2.50;;
16870;SDS011;8552;48.120;-1.456;2023-04-24T08:30:16;6.80;;;2.70;;
16870;SDS011;8552;48.120;-1.456;2023-04-24T08:32:41;6.40;;;2.47;;
16870;SDS011;8552;48.120;-1.456;2023-04-24T08:35:07;5.28;;;2.80;;
16870;SDS011;8552;48.120;-1.456;2023-04-24T08:37:34;4.68;;;2.25;;
16870;SDS011;8552;48.120;-1.456;2023-04-24T08:40:01;3.00;;;2.53;;
16870;SDS011;8552;48.120;-1.456;2023-04-24T08:42:31;5.10;;;2.60;;
16870;SDS011;8552;48.120;-1.456;2023-04-24T08:44:58;2.70;;;2.50;;
16870;SDS011;8552;48.120;-1.456;2023-04-24T08:47:24;4.07;;;2.33;;
16870;SDS011;8552;48.120;-1.456;2023-04-24T08:49:52;4.25;;;2.50;;
16870;SDS011;8552;48.120;-1.456;2023-04-24T08:52:19;3.42;;;2.35;;
16870;SDS011;8552;48.120;-1.456;2023-04-24T08:54:46;5.07;;;2.88;;
16870;SDS011;8552;48.120;-1.456;2023-04-24T08:57:15;3.47;;;2.55;;
16870;SDS011;8552;48.120;-1.456;2023-04-24T08:59:42;4.07;;;2.65;;
16870;SDS011;8552;48.120;-1.456;2023-04-24T09:02:09;3.97;;;2.20;;
16870;SDS011;8552;48.120;-1.456;2023-04-24T09:04:38;4.10;;;2.40;;
16870;SDS011;8552;48.120;-1.456;2023-04-24T09:07:09;3.58;;;2.15;;
16870;SDS011;8552;48.120;-1.456;2023-04-24T09:09:55;2.50;;;1.88;;
16870;SDS011;8552;48.120;-1.456;2023-04-24T09:12:21;3.42;;;2.03;;
16870;SDS011;8552;48.120;-1.456;2023-04-24T09:14:52;10.27;;;2.30;;
16870;SDS011;8552;48.120;-1.456;2023-04-24T09:17:21;2.88;;;2.30;;
16870;SDS011;8552;48.120;-1.456;2023-04-24T09:19:51;2.53;;;1.73;;
16870;SDS011;8552;48.120;-1.456;2023-04-24T09:22:22;3.13;;;2.15;;
16870;SDS011;8552;48.120;-1.456;2023-04-24T09:25:02;4.72;;;2.30;;
16870;SDS011;8552;48.120;-1.456;2023-04-24T09:27:41;4.43;;;2.42;;
16870;SDS011;8552;48.120;-1.456;2023-04-24T09:30:21;2.50;;;2.05;;
16870;SDS011;8552;48.120;-1.456;2023-04-24T09:32:58;6.10;;;2.58;;
16870;SDS011;8552;48.120;-1.456;2023-04-24T09:35:51;4.88;;;2.50;;
16870;SDS011;8552;48.120;-1.456;2023-04-24T09:38:30;4.32;;;2.50;;
16870;SDS011;8552;48.120;-1.456;2023-04-24T09:41:03;7.13;;;2.55;;
16870;SDS011;8552;48.120;-1.456;2023-04-24T09:43:47;4.03;;;2.20;;
16870;SDS011;8552;48.120;-1.456;2023-04-24T09:46:16;5.50;;;2.10;;
16870;SDS011;8552;48.120;-1.456;2023-04-24T09:49:07;3.75;;;1.90;;
16870;SDS011;8552;48.120;-1.456;2023-04-24T09:55:07;2.53;;;2.15;;
16870;SDS011;8552;48.120;-1.456;2023-04-24T09:57:57;3.97;;;1.65;;
16870;SDS011;8552;48.120;-1.456;2023-04-24T10:00:33;4.07;;;2.10;;
16870;SDS011;8552;48.120;-1.456;2023-04-24T10:03:14;4.63;;;1.92;;
16870;SDS011;8552;48.120;-1.456;2023-04-24T10:05:45;4.75;;;2.10;;
16870;SDS011;8552;48.120;-1.456;2023-04-24T10:08:23;5.15;;;2.03;;
16870;SDS011;8552;48.120;-1.456;2023-04-24T10:11:26;5.43;;;2.03;;
16870;SDS011;8552;48.120;-1.456;2023-04-24T10:13:52;4.03;;;2.17;;
16870;SDS011;8552;48.120;-1.456;2023-04-24T10:16:27;5.20;;;1.65;;
16870;SDS011;8552;48.120;-1.456;2023-04-24T10:19:15;4.80;;;1.95;;
16870;SDS011;8552;48.120;-1.456;2023-04-24T10:21:41;4.90;;;2.40;;
16870;SDS011;8552;48.120;-1.456;2023-04-24T10:24:17;4.32;;;2.22;;
16870;SDS011;8552;48.120;-1.456;2023-04-24T10:26:51;8.82;;;3.00;;
16870;SDS011;8552;48.120;-1.456;2023-04-24T10:29:40;6.65;;;3.15;;
16870;SDS011;8552;48.120;-1.456;2023-04-24T10:32:37;7.22;;;2.92;;
16870;SDS011;8552;48.120;-1.456;2023-04-24T10:35:04;6.47;;;2.47;;
16870;SDS011;8552;48.120;-1.456;2023-04-24T10:37:37;5.20;;;2.47;;
16870;SDS011;8552;48.120;-1.456;2023-04-24T10:40:06;4.70;;;2.80;;
16870;SDS011;8552;48.120;-1.456;2023-04-24T10:42:33;5.13;;;2.38;;
16870;SDS011;8552;48.120;-1.456;2023-04-24T10:45:04;6.18;;;2.75;;
16870;SDS011;8552;48.120;-1.456;2023-04-24T10:47:39;5.57;;;2.40;;
16870;SDS011;8552;48.120;-1.456;2023-04-24T10:50:10;5.57;;;2.83;;
16870;SDS011;8552;48.120;-1.456;2023-04-24T10:52:46;10.98;;;2.83;;
16870;SDS011;8552;48.120;-1.456;2023-04-24T10:55:16;3.78;;;2.47;;
16870;SDS011;8552;48.120;-1.456;2023-04-24T10:58:13;6.35;;;2.20;;
16870;SDS011;8552;48.120;-1.456;2023-04-24T11:00:42;7.30;;;2.35;;
16870;SDS011;8552;48.120;-1.456;2023-04-24T11:03:25;4.40;;;2.05;;
16870;SDS011;8552;48.120;-1.456;2023-04-24T11:05:55;5.68;;;2.25;;
16870;SDS011;8552;48.120;-1.456;2023-04-24T11:08:31;5.38;;;2.67;;
16870;SDS011;8552;48.120;-1.456;2023-04-24T11:11:09;6.60;;;2.90;;
16870;SDS011;8552;48.120;-1.456;2023-04-24T11:16:27;3.70;;;2.47;;
16870;SDS011;8552;48.120;-1.456;2023-04-24T11:19:06;8.93;;;2.47;;
16870;SDS011;8552;48.120;-1.456;2023-04-24T11:24:38;6.40;;;2.40;;
16870;SDS011;8552;48.120;-1.456;2023-04-24T11:27:13;5.28;;;2.53;;
16870;SDS011;8552;48.120;-1.456;2023-04-24T11:29:45;4.10;;;2.42;;
16870;SDS011;8552;48.120;-1.456;2023-04-24T11:34:48;6.40;;;2.50;;
16870;SDS011;8552;48.120;-1.456;2023-04-24T11:37:17;5.65;;;2.58;;
16870;SDS011;8552;48.120;-1.456;2023-04-24T11:39:43;8.65;;;3.28;;
16870;SDS011;8552;48.120;-1.456;2023-04-24T11:42:09;4.25;;;2.30;;
16870;SDS011;8552;48.120;-1.456;2023-04-24T11:44:38;11.43;;;2.67;;
16870;SDS011;8552;48.120;-1.456;2023-04-24T11:47:10;4.88;;;2.20;;
16870;SDS011;8552;48.120;-1.456;2023-04-24T11:49:38;7.32;;;2.78;;
16870;SDS011;8552;48.120;-1.456;2023-04-24T11:52:20;5.65;;;1.95;;
16870;SDS011;8552;48.120;-1.456;2023-04-24T11:54:57;7.82;;;2.47;;
16870;SDS011;8552;48.120;-1.456;2023-04-24T11:57:26;6.53;;;2.20;;
16870;SDS011;8552;48.120;-1.456;2023-04-24T12:00:00;6.40;;;2.25;;
16870;SDS011;8552;48.120;-1.456;2023-04-24T12:02:36;7.35;;;2.90;;
16870;SDS011;8552;48.120;-1.456;2023-04-24T12:05:02;5.45;;;2.42;;
16870;SDS011;8552;48.120;-1.456;2023-04-24T12:07:30;7.57;;;2.45;;
16870;SDS011;8552;48.120;-1.456;2023-04-24T12:10:11;4.55;;;2.05;;
16870;SDS011;8552;48.120;-1.456;2023-04-24T12:12:55;4.38;;;2.22;;
16870;SDS011;8552;48.120;-1.456;2023-04-24T12:15:50;4.53;;;2.30;;
16870;SDS011;8552;48.120;-1.456;2023-04-24T12:18:19;5.95;;;2.45;;
16870;SDS011;8552;48.120;-1.456;2023-04-24T12:20:50;5.90;;;2.17;;
16870;SDS011;8552;48.120;-1.456;2023-04-24T12:26:24;6.80;;;2.33;;
16870;SDS011;8552;48.120;-1.456;2023-04-24T12:28:50;6.68;;;1.80;;
16870;SDS011;8552;48.120;-1.456;2023-04-24T12:31:29;5.03;;;1.63;;
16870;SDS011;8552;48.120;-1.456;2023-04-24T12:33:57;6.75;;;2.22;;
16870;SDS011;8552;48.120;-1.456;2023-04-24T12:36:26;4.93;;;1.90;;
16870;SDS011;8552;48.120;-1.456;2023-04-24T12:38:52;4.68;;;1.85;;
16870;SDS011;8552;48.120;-1.456;2023-04-24T12:41:48;2.72;;;1.67;;
16870;SDS011;8552;48.120;-1.456;2023-04-24T12:44:16;6.45;;;2.10;;
16870;SDS011;8552;48.120;-1.456;2023-04-24T12:46:41;5.40;;;2.05;;
16870;SDS011;8552;48.120;-1.456;2023-04-24T12:49:29;4.13;;;1.73;;
16870;SDS011;8552;48.120;-1.456;2023-04-24T12:51:55;4.72;;;1.77;;
16870;SDS011;8552;48.120;-1.456;2023-04-24T12:54:24;4.47;;;2.10;;
16870;SDS011;8552;48.120;-1.456;2023-04-24T12:56:53;6.30;;;2.58;;
16870;SDS011;8552;48.120;-1.456;2023-04-24T12:59:21;6.18;;;2.03;;
16870;SDS011;8552;48.120;-1.456;2023-04-24T13:01:46;2.97;;;1.73;;
16870;SDS011;8552;48.120;-1.456;2023-04-24T13:04:14;5.65;;;2.25;;
16870;SDS011;8552;48.120;-1.456;2023-04-24T13:06:41;4.63;;;1.77;;
16870;SDS011;8552;48.120;-1.456;2023-04-24T13:09:09;3.33;;;1.60;;
16870;SDS011;8552;48.120;-1.456;2023-04-24T13:11:36;4.80;;;2.30;;
16870;SDS011;8552;48.120;-1.456;2023-04-24T13:14:04;4.90;;;1.85;;
16870;SDS011;8552;48.120;-1.456;2023-04-24T13:16:30;5.70;;;1.88;;
16870;SDS011;8552;48.120;-1.456;2023-04-24T13:18:56;6.15;;;1.80;;
16870;SDS011;8552;48.120;-1.456;2023-04-24T13:21:22;4.07;;;1.70;;
16870;SDS011;8552;48.120;-1.456;2023-04-24T13:23:48;6.25;;;1.70;;
16870;SDS011;8552;48.120;-1.456;2023-04-24T13:29:18;6.43;;;2.00;;
16870;SDS011;8552;48.120;-1.456;2023-04-24T13:32:00;6.90;;;2.30;;
16870;SDS011;8552;48.120;-1.456;2023-04-24T13:37:42;3.80;;;1.90;;
16870;SDS011;8552;48.120;-1.456;2023-04-24T13:47:05;5.10;;;2.08;;
16870;SDS011;8552;48.120;-1.456;2023-04-24T14:18:24;4.00;;;1.85;;
16870;SDS011;8552;48.120;-1.456;2023-04-24T14:21:18;5.80;;;1.70;;
16870;SDS011;8552;48.120;-1.456;2023-04-24T14:24:22;5.50;;;1.77;;
16870;SDS011;8552;48.120;-1.456;2023-04-24T14:37:27;6.05;;;2.00;;
16870;SDS011;8552;48.120;-1.456;2023-04-24T14:43:51;6.82;;;2.40;;
16870;SDS011;8552;48.120;-1.456;2023-04-24T14:46:39;5.78;;;2.03;;
16870;SDS011;8552;48.120;-1.456;2023-04-24T14:49:26;4.03;;;2.20;;
16870;SDS011;8552;48.120;-1.456;2023-04-24T14:52:03;5.47;;;2.40;;
16870;SDS011;8552;48.120;-1.456;2023-04-24T14:54:41;6.70;;;2.72;;
16870;SDS011;8552;48.120;-1.456;2023-04-24T14:57:07;6.35;;;2.30;;
16870;SDS011;8552;48.120;-1.456;2023-04-24T14:59:35;5.25;;;2.33;;
16870;SDS011;8552;48.120;-1.456;2023-04-24T15:02:04;4.47;;;1.98;;
16870;SDS011;8552;48.120;-1.456;2023-04-24T15:04:39;6.28;;;2.80;;
16870;SDS011;8552;48.120;-1.456;2023-04-24T15:07:05;7.47;;;2.20;;
16870;SDS011;8552;48.120;-1.456;2023-04-24T15:09:30;6.72;;;2.17;;
16870;SDS011;8552;48.120;-1.456;2023-04-24T15:11:57;7.15;;;3.30;;
16870;SDS011;8552;48.120;-1.456;2023-04-24T15:14:23;8.13;;;3.78;;
16870;SDS011;8552;48.120;-1.456;2023-04-24T15:16:49;6.40;;;3.08;;
16870;SDS011;8552;48.120;-1.456;2023-04-24T15:19:15;6.20;;;3.13;;
16870;SDS011;8552;48.120;-1.456;2023-04-24T15:21:41;5.70;;;3.30;;
16870;SDS011;8552;48.120;-1.456;2023-04-24T15:24:07;6.70;;;2.53;;
16870;SDS011;8552;48.120;-1.456;2023-04-24T15:26:33;6.38;;;3.25;;
16870;SDS011;8552;48.120;-1.456;2023-04-24T15:29:04;8.68;;;3.97;;
16870;SDS011;8552;48.120;-1.456;2023-04-24T15:31:30;3.95;;;2.42;;
16870;SDS011;8552;48.120;-1.456;2023-04-24T15:33:56;5.80;;;2.70;;
16870;SDS011;8552;48.120;-1.456;2023-04-24T15:36:22;5.50;;;2.80;;
16870;SDS011;8552;48.120;-1.456;2023-04-24T15:38:48;6.38;;;2.72;;
16870;SDS011;8552;48.120;-1.456;2023-04-24T15:41:15;6.30;;;2.15;;
16870;SDS011;8552;48.120;-1.456;2023-04-24T15:43:40;5.18;;;2.13;;
16870;SDS011;8552;48.120;-1.456;2023-04-24T15:46:09;8.23;;;2.85;;
16870;SDS011;8552;48.120;-1.456;2023-04-24T15:48:35;5.20;;;2.38;;
16870;SDS011;8552;48.120;-1.456;2023-04-24T15:51:00;3.13;;;2.13;;
16870;SDS011;8552;48.120;-1.456;2023-04-24T15:53:26;2.70;;;1.58;;
16870;SDS011;8552;48.120;-1.456;2023-04-24T15:55:52;3.33;;;1.35;;
16870;SDS011;8552;48.120;-1.456;2023-04-24T15:58:21;5.45;;;1.85;;
16870;SDS011;8552;48.120;-1.456;2023-04-24T16:00:47;5.20;;;1.80;;
16870;SDS011;8552;48.120;-1.456;2023-04-24T16:03:13;4.22;;;1.77;;
16870;SDS011;8552;48.120;-1.456;2023-04-24T16:05:39;2.53;;;1.83;;
16870;SDS011;8552;48.120;-1.456;2023-04-24T16:08:05;4.65;;;1.80;;